createdAt,value
2022-07-29T00:04:32.323Z,93622.84
2022-07-29T00:09:50.972Z,93624.15
2022-07-29T00:14:47.699Z,93624.15
2022-07-29T00:19:57.857Z,93622.45
2022-07-29T00:25:04.766Z,93624.02
2022-07-29T00:30:12.519Z,93610.83
2022-07-29T00:35:36.991Z,93623.86
2022-07-29T00:40:46.899Z,93621.41
2022-07-29T00:45:54.740Z,93614.49
2022-07-29T00:51:05.737Z,93609.09
2022-07-29T00:56:12.587Z,93605.95
2022-07-29T01:01:20.176Z,93607.34
2022-07-29T01:12:04.346Z,93616.73
2022-07-29T01:17:17.224Z,93613.75
2022-07-29T01:23:01.840Z,93611.09
2022-07-29T01:28:31.040Z,93604.53
2022-07-29T01:33:51.523Z,93598.27
2022-07-29T01:39:08.950Z,93595.55
2022-07-29T01:44:28.230Z,93594.36
2022-07-29T01:49:39.458Z,93587.52
2022-07-29T01:54:53.699Z,93579.22
2022-07-29T02:00:06.456Z,93570.11
2022-07-29T02:05:21.552Z,93563.28
2022-07-29T02:10:33.815Z,93556.45
2022-07-29T02:15:43.475Z,93566.34
2022-07-29T02:20:59.664Z,93560.28
2022-07-29T02:26:08.319Z,93562.91
2022-07-29T02:31:19.848Z,93537.67
2022-07-29T02:36:28.464Z,93558.63
2022-07-29T02:41:40.362Z,93545.29
2022-07-29T02:47:07.445Z,93547.95
2022-07-29T02:52:48.624Z,93543.84
2022-07-29T02:58:07.457Z,93540.17
2022-07-29T03:03:17.989Z,93544.27
2022-07-29T03:08:27.493Z,93550.59
2022-07-29T03:13:35.154Z,93543.94
2022-07-29T03:18:46.302Z,93549.59
2022-07-29T03:23:56.596Z,93545.70
2022-07-29T03:29:04.826Z,93553.28
2022-07-29T03:34:13.785Z,93554.25
2022-07-29T03:39:25.738Z,93552.94
2022-07-29T03:44:37.097Z,93552.13
2022-07-29T03:49:45.571Z,93548.48
2022-07-29T03:54:53.342Z,93547.92
2022-07-29T04:00:04.051Z,93553.30
2022-07-29T04:05:16.844Z,93557.70
2022-07-29T04:10:30.062Z,93553.65
2022-07-29T04:15:33.674Z,93555.32
2022-07-29T04:20:41.287Z,93570.63
2022-07-29T04:25:53.317Z,93557.09
2022-07-29T04:31:00.265Z,93556.66
2022-07-29T04:36:29.551Z,93570.42
2022-07-29T04:41:16.931Z,93573.95
2022-07-29T04:46:27.434Z,93560.41
2022-07-29T04:51:35.590Z,93555.05
2022-07-29T04:56:43.776Z,93555.50
2022-07-29T05:01:51.659Z,93560.95
2022-07-29T05:06:59.015Z,93564.44
2022-07-29T05:12:06.408Z,93557.81
2022-07-29T05:17:20.227Z,93560.27
2022-07-29T05:22:32.886Z,93564.25
2022-07-29T05:27:46.276Z,93564.89
2022-07-29T05:32:56.057Z,93570.83
2022-07-29T05:38:07.213Z,93566.49
2022-07-29T05:43:15.561Z,93575.11
2022-07-29T05:48:23.591Z,93565.41
2022-07-29T05:53:33.199Z,93564.73
2022-07-29T05:58:40.676Z,93574.39
2022-07-29T06:03:50.581Z,93572.92
2022-07-29T06:08:59.983Z,93578.09
2022-07-29T06:14:09.140Z,93580.07
2022-07-29T06:19:20.428Z,93579.62
2022-07-29T06:24:30.693Z,93577.89
2022-07-29T06:29:41.494Z,93574.58
2022-07-29T06:34:52.070Z,93578.67
2022-07-29T06:40:22.434Z,93583.38
2022-07-29T06:45:32.624Z,93576.61
2022-07-29T06:50:41.276Z,93582.83
2022-07-29T06:55:51.819Z,93573.69
2022-07-29T07:01:03.845Z,93578.55
2022-07-29T07:06:17.087Z,93577.91
2022-07-29T07:11:25.807Z,93577.94
2022-07-29T07:16:34.874Z,93585.78
2022-07-29T07:21:44.391Z,93593.00
2022-07-29T07:26:53.072Z,93590.26
2022-07-29T07:32:03.374Z,93590.48
2022-07-29T07:37:13.697Z,93595.06
2022-07-29T07:42:24.255Z,93588.28
2022-07-29T07:47:34.242Z,93591.13
2022-07-29T07:52:57.240Z,93590.32
2022-07-29T07:58:05.831Z,93584.85
2022-07-29T08:03:17.482Z,93590.00
2022-07-29T08:08:26.337Z,93592.88
2022-07-29T08:13:37.420Z,93596.23
2022-07-29T08:18:49.644Z,93607.63
2022-07-29T08:24:03.020Z,93612.78
2022-07-29T08:29:11.871Z,93616.59
2022-07-29T08:34:18.719Z,93619.52
2022-07-29T08:39:28.671Z,93622.88
2022-07-29T08:44:37.351Z,93618.73
2022-07-29T08:49:51.067Z,93624.58
2022-07-29T08:55:02.821Z,93633.94
2022-07-29T09:00:14.149Z,93630.44
2022-07-29T09:05:24.219Z,93632.71
2022-07-29T09:10:36.162Z,93639.23
2022-07-29T09:15:46.827Z,93637.67
2022-07-29T09:21:14.058Z,93647.45
2022-07-29T09:26:28.303Z,93650.91
2022-07-29T09:31:46.068Z,93644.93
2022-07-29T09:37:02.139Z,93648.39
2022-07-29T09:42:13.516Z,93647.30
2022-07-29T09:47:28.653Z,93655.45
2022-07-29T09:52:51.016Z,93648.83
2022-07-29T09:58:03.942Z,93648.77
2022-07-29T10:03:14.444Z,93656.95
2022-07-29T10:08:28.776Z,93648.75
2022-07-29T10:13:36.034Z,93657.21
2022-07-29T10:18:45.621Z,93654.09
2022-07-29T10:23:54.941Z,93651.97
2022-07-29T10:29:05.401Z,93649.61
2022-07-29T10:35:05.789Z,93648.28
2022-07-29T10:40:52.041Z,93636.05
2022-07-29T10:46:07.306Z,93633.05
2022-07-29T10:51:14.648Z,93621.80
2022-07-29T10:56:38.381Z,93609.56
2022-07-29T11:01:52.472Z,93614.45
2022-07-29T11:07:17.890Z,93615.22
2022-07-29T11:12:49.636Z,93606.00
2022-07-29T11:18:07.639Z,93602.44
2022-07-29T11:23:37.921Z,93598.62
2022-07-29T11:29:28.271Z,93604.60
2022-07-29T11:34:41.110Z,93603.47
2022-07-29T11:40:02.550Z,93604.60
2022-07-29T11:45:42.141Z,93601.89
2022-07-29T11:50:44.386Z,93604.59
2022-07-29T11:55:51.140Z,93598.66
2022-07-29T12:01:04.194Z,93597.95
2022-07-29T12:06:21.069Z,93600.20
2022-07-29T12:11:30.571Z,93604.47
2022-07-29T12:16:44.908Z,93606.91
2022-07-29T12:21:59.395Z,93606.74
2022-07-29T12:27:06.009Z,93605.72
2022-07-29T12:32:14.466Z,93603.39
2022-07-29T12:37:30.981Z,93598.00
2022-07-29T12:42:35.992Z,93595.30
2022-07-29T12:47:57.292Z,93588.78
2022-07-29T12:53:18.098Z,93594.23
2022-07-29T12:58:44.513Z,93586.95
2022-07-29T13:04:00.719Z,93588.39
2022-07-29T13:09:28.264Z,93590.03
2022-07-29T13:14:48.072Z,93592.17
2022-07-29T13:20:13.190Z,93596.55
2022-07-29T13:25:35.846Z,93589.28
2022-07-29T13:30:44.537Z,93587.40
2022-07-29T13:35:52.094Z,93578.34
2022-07-29T13:41:02.737Z,93579.41
2022-07-29T13:46:11.552Z,93581.50
2022-07-29T13:51:22.113Z,93567.94
2022-07-29T13:56:29.923Z,93570.23
2022-07-29T14:01:41.634Z,93569.00
2022-07-29T14:06:48.389Z,93550.66
2022-07-29T14:11:58.501Z,93554.26
2022-07-29T14:17:08.634Z,93545.95
2022-07-29T14:22:16.415Z,93532.47
2022-07-29T14:27:37.926Z,93540.74
2022-07-29T14:32:31.664Z,93527.12
2022-07-29T14:37:40.147Z,93528.38
2022-07-29T14:42:46.969Z,93525.40
2022-07-29T14:47:57.350Z,93527.19
2022-07-29T14:53:05.090Z,93527.11
2022-07-29T14:58:16.267Z,93519.89
2022-07-29T15:03:24.071Z,93514.37
2022-07-29T15:08:32.654Z,93510.14
2022-07-29T15:13:43.853Z,93511.68
2022-07-29T15:18:51.028Z,93508.39
2022-07-29T15:23:59.213Z,93498.89
2022-07-29T15:29:10.724Z,93496.81
2022-07-29T15:34:18.113Z,93494.51
2022-07-29T15:39:25.726Z,93486.52
2022-07-29T15:44:34.033Z,93484.83
2022-07-29T15:49:49.354Z,93476.23
2022-07-29T15:54:59.808Z,93475.91
2022-07-29T16:00:10.972Z,93470.48
2022-07-29T16:05:18.393Z,93467.85
2022-07-29T16:10:26.499Z,93458.78
2022-07-29T16:15:33.299Z,93456.63
2022-07-29T16:20:41.339Z,93456.22
2022-07-29T16:26:02.328Z,93457.41
2022-07-29T16:30:59.618Z,93454.28
2022-07-29T16:36:08.078Z,93454.66
2022-07-29T16:41:17.861Z,93444.38
2022-07-29T16:46:25.877Z,93446.46
2022-07-29T16:51:34.281Z,93445.78
2022-07-29T16:56:43.207Z,93444.14
2022-07-29T17:01:50.661Z,93442.30
2022-07-29T17:06:57.757Z,93442.38
2022-07-29T17:12:05.452Z,93439.92
2022-07-29T17:17:15.767Z,93437.59
2022-07-29T17:22:23.051Z,93426.75
2022-07-29T17:27:31.237Z,93427.75
2022-07-29T17:32:40.027Z,93426.73
2022-07-29T17:37:46.726Z,93430.08
2022-07-29T17:42:53.505Z,93430.82
2022-07-29T17:48:02.274Z,93436.52
2022-07-29T17:53:15.943Z,93446.42
2022-07-29T17:58:22.023Z,93450.62
2022-07-29T18:03:29.245Z,93449.43
2022-07-29T18:08:36.585Z,93442.02
2022-07-29T18:13:44.035Z,93436.52
2022-07-29T18:18:50.936Z,93434.03
2022-07-29T18:23:58.793Z,93441.55
2022-07-29T18:29:06.416Z,93438.59
2022-07-29T18:34:17.664Z,93430.82
2022-07-29T18:39:24.623Z,93431.39
2022-07-29T18:44:34.159Z,93433.09
2022-07-29T18:49:43.059Z,93434.95
2022-07-29T18:54:52.758Z,93441.73
2022-07-29T18:59:59.915Z,93443.67
2022-07-29T19:05:10.146Z,93463.77
2022-07-29T19:10:17.183Z,93475.98
2022-07-29T19:15:23.998Z,93483.32
2022-07-29T19:20:32.144Z,93486.05
2022-07-29T19:25:53.048Z,93493.28
2022-07-29T19:30:50.686Z,93507.09
2022-07-29T19:35:59.554Z,93512.86
2022-07-29T19:41:11.719Z,93524.16
2022-07-29T19:46:21.580Z,93545.37
2022-07-29T19:51:32.966Z,93548.59
2022-07-29T19:56:42.222Z,93549.34
2022-07-29T20:01:49.967Z,93561.33
2022-07-29T20:06:58.873Z,93567.28
2022-07-29T20:12:09.019Z,93573.50
2022-07-29T20:17:15.780Z,93588.02
2022-07-29T20:22:23.373Z,93592.05
2022-07-29T20:27:31.663Z,93606.36
2022-07-29T20:32:38.456Z,93611.67
2022-07-29T20:37:52.303Z,93610.33
2022-07-29T20:42:55.579Z,93606.16
2022-07-29T20:48:04.021Z,93600.50
2022-07-29T20:53:11.521Z,93601.62
2022-07-29T20:58:21.034Z,93580.38
2022-07-29T21:03:33.500Z,93564.64
2022-07-29T21:08:41.946Z,93550.33
2022-07-29T21:13:51.178Z,93546.75
2022-07-29T21:18:58.620Z,93538.80
2022-07-29T21:24:07.425Z,93523.56
2022-07-29T21:29:19.126Z,93524.42
2022-07-29T21:34:27.898Z,93520.59
2022-07-29T21:39:35.033Z,93511.12
2022-07-29T21:44:45.345Z,93506.75
2022-07-29T21:49:53.423Z,93506.91
2022-07-29T21:55:01.762Z,93509.41
2022-07-29T22:00:16.967Z,93491.36
2022-07-29T22:05:24.929Z,93492.67
2022-07-29T22:10:36.803Z,93494.75
2022-07-29T22:15:47.433Z,93490.97
2022-07-29T22:20:54.417Z,93487.62
2022-07-29T22:26:04.921Z,93484.80
2022-07-29T22:31:15.564Z,93475.56
2022-07-29T22:36:23.666Z,93473.04
2022-07-29T22:41:34.418Z,93461.11
2022-07-29T22:46:44.579Z,93458.12
2022-07-29T22:51:57.528Z,93454.03
2022-07-29T22:57:04.385Z,93452.80
2022-07-29T23:02:14.777Z,93448.80
2022-07-29T23:07:27.098Z,93446.80
2022-07-29T23:12:36.282Z,93435.11
2022-07-29T23:17:43.911Z,93434.47
2022-07-29T23:22:56.702Z,93420.84
2022-07-29T23:28:05.782Z,93409.25
2022-07-29T23:33:18.157Z,93418.86
2022-07-29T23:38:26.772Z,93410.45
2022-07-29T23:43:37.566Z,93405.81
2022-07-29T23:48:49.770Z,93411.17
2022-07-29T23:54:02.453Z,93412.48
2022-07-29T23:59:11.200Z,93409.31
